Tenerife Norte / Los Rodeos GCXO

Aviation Digital Data Service (ADDS)

Output produced by METARs form (0302 UTC 19 September 2019)

 
METAR text: GCXO 190230Z AUTO 28010KT 9999 SCT003 SCT008 17/16 Q1019
Conditions at: GCXO (TENERIFE/LOS ROD, ES) observed 0230 UTC 19 September 2019
Temperature: 17.0°C (63°F)
Dewpoint: 16.0°C (61°F) [RH = 94%]
Pressure (altimeter): 30.09 inches Hg (1019.0 mb)
Winds: from the W (280 degrees) at 12 MPH (10 knots; 5.1 m/s)
Visibility: 6 or more miles (10+ km)
Ceiling: at least 12,000 feet AGL
Clouds: scattered clouds at 300 feet AGL
scattered clouds at 800 feet AGL
Weather: no significant weather observed at this time

Forecast for: GCXO (TENERIFE/LOS ROD, ES)
Text: TAF GCXO 190200Z 1903/2003 30012KT 9999 SCT005 TX25/1914Z TN17/1905Z
Forecast period: 0300 UTC 19 September 2019 to 0300 UTC 20 September 2019
Forecast type: FROM: standard forecast or significant change
Winds: from the WNW (300 degrees) at 14 MPH (12 knots; 6.2 m/s)
Visibility: 6 or more miles 10+ km)
Ceiling: at least 12,000 feet AGL
Clouds: scattered clouds at 500 feet AGL
Weather: no significant weather forecast for this period
Text: PROB30
Forecast period: 0300 to 0700 UTC 19 September 2019
Forecast type: TEMPORARY: The following changes expected for less than half the time period
Visibility: 1.55 miles (2.49 km)
Ceiling: 500 feet AGL
Clouds: broken clouds at 500 feet AGL
Weather: BCFG  (patches of fog)

Tenerife Sur / Aeropuerto GCTS

Aviation Digital Data Service (ADDS)

Output produced by METARs form (0302 UTC 19 September 2019)

 
METAR text: GCTS 190230Z 03005KT 360V060 9999 FEW025 21/17 Q1017 NOSIG
Conditions at: GCTS (TENERIFE SUR/REI, ES) observed 0230 UTC 19 September 2019
Temperature: 21.0°C (70°F)
Dewpoint: 17.0°C (63°F) [RH = 78%]
Pressure (altimeter): 30.03 inches Hg (1017.0 mb)
Winds: from the NNE (30 degrees) at 6 MPH (5 knots; 2.6 m/s)
Visibility: 6 or more miles (10+ km)
Ceiling: at least 12,000 feet AGL
Clouds: few clouds at 2500 feet AGL
Weather: no significant weather observed at this time

Forecast for: GCTS (TENERIFE SUR/REI, ES)
Text: TAF GCTS 190200Z 1903/2003 05008KT 9999 FEW025 TX28/1914Z TN21/1903Z
Forecast period: 0300 to 0900 UTC 19 September 2019
Forecast type: FROM: standard forecast or significant change
Winds: from the NE (50 degrees) at 9 MPH (8 knots; 4.1 m/s)
Visibility: 6 or more miles 10+ km)
Ceiling: at least 12,000 feet AGL
Clouds: few clouds at 2500 feet AGL
Weather: no significant weather forecast for this period
Text: BECMG 1909/1911 09018KT
Forecast period: 0900 to 1900 UTC 19 September 2019
Forecast type: BECOMING: Conditions expected to become as follows by 1100 UTC 19 September 2019
Winds: from the E (90 degrees) at 21 MPH (18 knots; 9.3 m/s)
Visibility: 6 or more miles 10+ km)
Ceiling: at least 12,000 feet AGL
Clouds: few clouds at 2500 feet AGL
Weather: no significant weather forecast for this period
Text: BECMG 1919/1922 05008KT
Forecast period: 1900 UTC 19 September 2019 to 0300 UTC 20 September 2019
Forecast type: BECOMING: Conditions expected to become as follows by 2200 UTC 19 September 2019
Winds: from the NE (50 degrees) at 9 MPH (8 knots; 4.1 m/s)
Visibility: 6 or more miles 10+ km)
Ceiling: at least 12,000 feet AGL
Clouds: few clouds at 2500 feet AGL
Weather: no significant weather forecast for this period

La Palma / Aeropuerto GCLA

Aviation Digital Data Service (ADDS)

Output produced by METARs form (0302 UTC 19 September 2019)

 
METAR text: GCLA 190230Z AUTO 36008KT 9999 FEW027 BKN035 22/16 Q1018
Conditions at: GCLA (LA PALMA AIRPORT, ES) observed 0230 UTC 19 September 2019
Temperature: 22.0°C (72°F)
Dewpoint: 16.0°C (61°F) [RH = 69%]
Pressure (altimeter): 30.06 inches Hg (1018.0 mb)
Winds: from the N (360 degrees) at 9 MPH (8 knots; 4.1 m/s)
Visibility: 6 or more miles (10+ km)
Ceiling: 3500 feet AGL
Clouds: few clouds at 2700 feet AGL
broken clouds at 3500 feet AGL
Weather: no significant weather observed at this time

Forecast for: GCLA (LA PALMA AIRPORT, ES)
Text: TAF GCLA 190200Z 1903/2003 33008KT 9999 SCT030 TX27/1915Z TN22/1904Z
Forecast period: 0300 to 0800 UTC 19 September 2019
Forecast type: FROM: standard forecast or significant change
Winds: from the NNW (330 degrees) at 9 MPH (8 knots; 4.1 m/s)
Visibility: 6 or more miles 10+ km)
Ceiling: at least 12,000 feet AGL
Clouds: scattered clouds at 3000 feet AGL
Weather: no significant weather forecast for this period
Text: BECMG 1908/1910 03011KT
Forecast period: 0800 to 2100 UTC 19 September 2019
Forecast type: BECOMING: Conditions expected to become as follows by 1000 UTC 19 September 2019
Winds: from the NNE (30 degrees) at 13 MPH (11 knots; 5.7 m/s)
Visibility: 6 or more miles 10+ km)
Ceiling: at least 12,000 feet AGL
Clouds: scattered clouds at 3000 feet AGL
Weather: no significant weather forecast for this period
Text: BECMG 1921/1923 33008KT
Forecast period: 2100 UTC 19 September 2019 to 0300 UTC 20 September 2019
Forecast type: BECOMING: Conditions expected to become as follows by 2300 UTC 19 September 2019
Winds: from the NNW (330 degrees) at 9 MPH (8 knots; 4.1 m/s)
Visibility: 6 or more miles 10+ km)
Ceiling: at least 12,000 feet AGL
Clouds: scattered clouds at 3000 feet AGL
Weather: no significant weather forecast for this period

Hierro / Aeropuerto GCHI

Aviation Digital Data Service (ADDS)

Output produced by METARs form (0302 UTC 19 September 2019)

 
METAR text: GCHI 190230Z AUTO 35014KT 9999 FEW021 SCT026 BKN031 23/19 Q1017
Conditions at: GCHI (HIERRO AIRPORT , ES) observed 0230 UTC 19 September 2019
Temperature: 23.0°C (73°F)
Dewpoint: 19.0°C (66°F) [RH = 78%]
Pressure (altimeter): 30.03 inches Hg (1017.0 mb)
Winds: from the N (350 degrees) at 16 MPH (14 knots; 7.2 m/s)
Visibility: 6 or more miles (10+ km)
Ceiling: 3100 feet AGL
Clouds: few clouds at 2100 feet AGL
scattered clouds at 2600 feet AGL
broken clouds at 3100 feet AGL
Weather: no significant weather observed at this time

Forecast for: GCHI (HIERRO AIRPORT , ES)
Text: TAF GCHI 190200Z 1903/2003 02013KT 9999 SCT025 TX26/1914Z TN22/1903Z
Forecast period: 0300 UTC 19 September 2019 to 0300 UTC 20 September 2019
Forecast type: FROM: standard forecast or significant change
Winds: from the NNE (20 degrees) at 15 MPH (13 knots; 6.7 m/s)
Visibility: 6 or more miles 10+ km)
Ceiling: at least 12,000 feet AGL
Clouds: scattered clouds at 2500 feet AGL
Weather: no significant weather forecast for this period

Gran Canaria / Aeropuerto GCLP

Aviation Digital Data Service (ADDS)

Output produced by METARs form (0302 UTC 19 September 2019)

 
METAR text: GCLP 190230Z 01016KT 9999 FEW024 22/18 Q1016 NOSIG
Conditions at: GCLP (LAS PALMAS/GANDO, ES) observed 0230 UTC 19 September 2019
Temperature: 22.0°C (72°F)
Dewpoint: 18.0°C (64°F) [RH = 78%]
Pressure (altimeter): 30.00 inches Hg (1016.0 mb)
Winds: from the N (10 degrees) at 18 MPH (16 knots; 8.2 m/s)
Visibility: 6 or more miles (10+ km)
Ceiling: at least 12,000 feet AGL
Clouds: few clouds at 2400 feet AGL
Weather: no significant weather observed at this time

Forecast for: GCLP (LAS PALMAS/GANDO, ES)
Text: TAF GCLP 190200Z 1903/2003 01016KT 9999 SCT020 TX26/1914Z TN22/1903Z
Forecast period: 0300 UTC 19 September 2019 to 0300 UTC 20 September 2019
Forecast type: FROM: standard forecast or significant change
Winds: from the N (10 degrees) at 18 MPH (16 knots; 8.2 m/s)
Visibility: 6 or more miles 10+ km)
Ceiling: at least 12,000 feet AGL
Clouds: scattered clouds at 2000 feet AGL
Weather: no significant weather forecast for this period

Fuerteventura / Aeropuerto GCFV

Aviation Digital Data Service (ADDS)

Output produced by METARs form (0302 UTC 19 September 2019)

 
METAR text: GCFV 190230Z AUTO 03014KT 9999 OVC019 22/19 Q1016
Conditions at: GCFV (FUERTEVENTURA AR, ES) observed 0230 UTC 19 September 2019
Temperature: 22.0°C (72°F)
Dewpoint: 19.0°C (66°F) [RH = 83%]
Pressure (altimeter): 30.00 inches Hg (1016.0 mb)
Winds: from the NNE (30 degrees) at 16 MPH (14 knots; 7.2 m/s)
Visibility: 6 or more miles (10+ km)
Ceiling: 1900 feet AGL
Clouds: overcast cloud deck at 1900 feet AGL
Weather: no significant weather observed at this time

Forecast for: GCFV (FUERTEVENTURA AR, ES)
Text: TAF GCFV 190200Z 1903/2003 03011KT 9999 FEW020 TX26/1911Z TN22/1903Z
Forecast period: 0300 UTC 19 September 2019 to 0300 UTC 20 September 2019
Forecast type: FROM: standard forecast or significant change
Winds: from the NNE (30 degrees) at 13 MPH (11 knots; 5.7 m/s)
Visibility: 6 or more miles 10+ km)
Ceiling: at least 12,000 feet AGL
Clouds: few clouds at 2000 feet AGL
Weather: no significant weather forecast for this period

Lanzarote / Aeropuerto GCRR

Aviation Digital Data Service (ADDS)

Output produced by METARs form (0302 UTC 19 September 2019)

 
METAR text: GCRR 190230Z AUTO 02007KT 9999 NCD 20/18 Q1016
Conditions at: GCRR (ARRECIFE/LANZARO, ES) observed 0230 UTC 19 September 2019
Temperature: 20.0°C (68°F)
Dewpoint: 18.0°C (64°F) [RH = 88%]
Pressure (altimeter): 30.00 inches Hg (1016.0 mb)
Winds: from the NNE (20 degrees) at 8 MPH (7 knots; 3.6 m/s)
Visibility: 6 or more miles (10+ km)
Ceiling: at least 12,000 feet AGL
Clouds: sky clear below 12,000 feet AGL
Weather: no significant weather observed at this time

Forecast for: GCRR (ARRECIFE/LANZARO, ES)
Text: TAF GCRR 190200Z 1903/2003 02011KT 9999 FEW025 TX28/1911Z TN20/1905Z
Forecast period: 0300 UTC 19 September 2019 to 0300 UTC 20 September 2019
Forecast type: FROM: standard forecast or significant change
Winds: from the NNE (20 degrees) at 13 MPH (11 knots; 5.7 m/s)
Visibility: 6 or more miles 10+ km)
Ceiling: at least 12,000 feet AGL
Clouds: few clouds at 2500 feet AGL
Weather: no significant weather forecast for this period
Text: PROB40 1913/1916 08017KT
Forecast period: 1300 to 1600 UTC 19 September 2019
Forecast type: PROBABLE: 40 percent likelihood of the following during this time
Winds: from the E (80 degrees) at 20 MPH (17 knots; 8.7 m/s)
Visibility: missing
Ceiling: unknown
Clouds: missing
Weather: no significant weather forecast for this period